Time;durP1;ratioP1;P1;durP2;ratioP2;P2;SDS_P1;SDS_P2;PMS_P1;PMS_P2;Temp;Humidity;BMP_temperature;BMP_pressure;BME280_temperature;BME280_humidity;BME280_pressure;Samples;Min_cycle;Max_cycle;Signal;HPM_P1;HPM_P2
2023/04/25 00:01:56;;;;;;;8.90;3.50;;;;;;;15.64;63.92;101224.27;110555;1274;22843;-52
2023/04/25 00:04:23;;;;;;;10.60;3.10;;;;;;;15.62;63.94;101226.93;110537;1273;22192;-52
2023/04/25 00:06:52;;;;;;;6.40;3.30;;;;;;;15.62;64.06;101222.77;110567;1271;22096;-52
2023/04/25 00:09:19;;;;;;;5.40;3.60;;;;;;;15.62;63.97;101223.63;110596;1260;22396;-52
2023/04/25 00:11:46;;;;;;;5.80;3.00;;;;;;;15.61;63.92;101221.20;110569;1270;22171;-52
2023/04/25 00:14:13;;;;;;;8.70;3.30;;;;;;;15.60;63.92;101217.91;110548;1274;22419;-52
2023/04/25 00:16:40;;;;;;;6.00;3.20;;;;;;;15.59;64.05;101216.90;110542;1267;22176;-52
2023/04/25 00:19:09;;;;;;;6.00;2.90;;;;;;;15.58;64.09;101211.86;109021;1275;1002309;-52
2023/04/25 00:21:40;;;;;;;7.70;2.90;;;;;;;15.58;64.09;101211.36;110529;1275;22396;-52
2023/04/25 00:24:07;;;;;;;5.00;3.10;;;;;;;15.57;64.15;101203.52;110534;1274;22081;-53
2023/04/25 00:26:35;;;;;;;3.80;3.10;;;;;;;15.56;64.19;101203.89;110638;1267;23077;-52
2023/04/25 00:29:02;;;;;;;6.40;3.10;;;;;;;15.55;64.32;101205.70;110565;1267;23203;-52
2023/04/25 00:31:30;;;;;;;6.80;3.80;;;;;;;15.54;64.44;101211.32;108861;1274;1006283;-53
2023/04/25 00:33:57;;;;;;;6.10;3.20;;;;;;;15.53;64.52;101209.80;110564;1274;22425;-52
2023/04/25 00:36:24;;;;;;;5.80;3.20;;;;;;;15.52;64.68;101208.60;110248;1274;22392;-53
2023/04/25 00:38:53;;;;;;;8.70;3.30;;;;;;;15.51;64.78;101206.02;110533;1270;22143;-53
2023/04/25 00:41:20;;;;;;;7.20;3.40;;;;;;;15.51;64.86;101203.92;110542;1274;22422;-53
2023/04/25 00:43:48;;;;;;;4.10;2.90;;;;;;;15.50;64.90;101199.23;110393;1267;22821;-52
2023/04/25 00:46:15;;;;;;;4.40;3.20;;;;;;;15.49;64.97;101197.17;110532;1274;22305;-52
2023/04/25 00:48:42;;;;;;;4.50;3.00;;;;;;;15.47;65.05;101194.44;110572;1270;22888;-53
2023/04/25 00:51:09;;;;;;;4.10;3.00;;;;;;;15.45;65.14;101192.39;110596;1267;22092;-53
2023/04/25 00:53:36;;;;;;;5.80;3.10;;;;;;;15.44;65.21;101191.56;110517;1270;22261;-52
2023/04/25 00:56:03;;;;;;;4.00;2.80;;;;;;;15.44;65.20;101191.55;110530;1274;22358;-53
2023/04/25 00:58:30;;;;;;;7.10;3.20;;;;;;;15.44;65.18;101189.98;110543;1270;23260;-53
2023/04/25 01:00:57;;;;;;;5.60;3.30;;;;;;;15.42;65.21;101189.69;110490;1270;22254;-53
2023/04/25 01:03:24;;;;;;;6.60;3.50;;;;;;;15.41;65.27;101193.55;110131;1273;22400;-53
2023/04/25 01:05:52;;;;;;;8.00;3.50;;;;;;;15.41;65.32;101190.25;110536;1267;22999;-53
2023/04/25 01:08:19;;;;;;;6.20;3.40;;;;;;;15.41;65.39;101185.17;110589;1274;23111;-52
2023/04/25 01:10:46;;;;;;;5.50;4.10;;;;;;;15.39;65.29;101181.90;110519;1275;22137;-52
2023/04/25 01:13:13;;;;;;;5.50;3.50;;;;;;;15.39;65.45;101179.84;110545;1267;22310;-53
2023/04/25 01:15:40;;;;;;;6.60;3.40;;;;;;;15.38;65.46;101176.18;110542;1274;22120;-52
2023/04/25 01:18:07;;;;;;;6.30;3.30;;;;;;;15.38;65.54;101181.09;110545;1266;22280;-52
2023/04/25 01:20:34;;;;;;;5.60;3.80;;;;;;;15.38;65.53;101182.65;110544;1270;22307;-53
2023/04/25 01:23:02;;;;;;;6.60;3.90;;;;;;;15.39;65.45;101179.84;110295;1274;22302;-53
2023/04/25 01:25:30;;;;;;;6.20;3.10;;;;;;;15.37;65.47;101180.41;110407;1270;22129;-53
2023/04/25 01:27:58;;;;;;;3.60;3.00;;;;;;;15.37;65.43;101177.43;110137;1273;22269;-53
2023/04/25 01:30:26;;;;;;;8.50;3.50;;;;;;;15.37;65.53;101171.48;110500;1270;22182;-53
2023/04/25 01:32:57;;;;;;;4.10;3.00;;;;;;;15.37;65.56;101169.24;110507;1274;22082;-53
2023/04/25 01:35:24;;;;;;;4.20;3.00;;;;;;;15.36;65.44;101168.23;110341;1271;22188;-53
2023/04/25 01:37:54;;;;;;;5.10;3.30;;;;;;;15.35;65.56;101164.59;110398;1273;22765;-53
2023/04/25 01:40:22;;;;;;;4.30;3.40;;;;;;;15.34;65.53;101162.02;110435;1267;22275;-53
2023/04/25 01:42:49;;;;;;;7.10;3.70;;;;;;;15.33;65.58;101163.25;110540;1269;22344;-53
2023/04/25 01:45:17;;;;;;;8.80;3.70;;;;;;;15.32;65.56;101161.87;110164;1274;22784;-53
2023/04/25 01:47:48;;;;;;;7.90;3.40;;;;;;;15.32;65.65;101158.58;110541;1267;22123;-53
2023/04/25 01:50:17;;;;;;;;;;;;;;;15.32;65.73;101158.58;110545;1275;22515;-53
2023/04/25 01:52:44;;;;;;;9.60;3.70;;;;;;;15.31;65.66;101153.35;110511;1267;22370;-53
2023/04/25 01:55:12;;;;;;;5.50;3.40;;;;;;;15.28;65.70;101151.17;110503;1270;23005;-52
2023/04/25 01:57:47;;;;;;;6.00;3.70;;;;;;;15.28;65.65;101151.73;110337;1273;23070;-53
2023/04/25 02:00:15;;;;;;;6.30;3.30;;;;;;;15.26;65.66;101147.23;110489;1270;23094;-53
2023/04/25 02:02:42;;;;;;;7.10;3.80;;;;;;;15.27;65.55;101143.21;110549;1274;22135;-52
2023/04/25 02:05:21;;;;;;;6.50;3.70;;;;;;;15.26;65.58;101146.04;110510;1269;22400;-53
2023/04/25 02:07:48;;;;;;;6.20;3.20;;;;;;;15.25;65.58;101144.48;110059;1272;221827;-53
2023/04/25 02:10:15;;;;;;;9.10;3.90;;;;;;;15.24;65.67;101145.04;110316;1274;22095;-53
2023/04/25 02:12:54;;;;;;;8.90;3.40;;;;;;;15.24;65.62;101141.55;110359;1274;23398;-53
2023/04/25 02:15:37;;;;;;;6.90;3.30;;;;;;;15.24;65.62;101142.95;110515;1269;23165;-53
2023/04/25 02:18:15;;;;;;;8.80;3.80;;;;;;;15.23;65.68;101143.83;110472;1274;22292;-53
2023/04/25 02:20:43;;;;;;;4.80;3.60;;;;;;;15.23;65.69;101144.71;110334;1276;22978;-53
2023/04/25 02:23:11;;;;;;;10.90;3.70;;;;;;;15.23;65.65;101144.36;110509;1267;22303;-52
2023/04/25 02:25:37;;;;;;;6.10;3.70;;;;;;;15.22;65.73;101147.54;110577;1269;22742;-53
2023/04/25 02:28:04;;;;;;;5.20;3.50;;;;;;;15.22;65.74;101147.38;110524;1269;22168;-53
2023/04/25 02:30:32;;;;;;;10.50;3.80;;;;;;;15.23;65.75;101145.95;108923;1271;1002891;-53
2023/04/25 02:33:00;;;;;;;8.60;4.60;;;;;;;15.23;65.81;101146.99;110571;1267;22203;-53
2023/04/25 02:35:28;;;;;;;7.10;3.90;;;;;;;15.22;65.94;101141.77;110449;1273;22480;-52
2023/04/25 02:37:55;;;;;;;7.10;3.90;;;;;;;15.23;66.07;101137.73;110478;1272;22953;-52
2023/04/25 02:40:22;;;;;;;11.50;4.20;;;;;;;15.24;66.07;101138.23;110467;1267;22128;-52
2023/04/25 02:42:49;;;;;;;5.30;3.90;;;;;;;15.24;66.08;101137.55;110534;1274;22117;-54
2023/04/25 02:45:18;;;;;;;8.20;4.50;;;;;;;15.25;66.11;101139.80;110555;1274;22400;-52
2023/04/25 02:47:45;;;;;;;6.20;4.30;;;;;;;15.25;66.16;101136.98;110582;1269;22306;-53
2023/04/25 02:50:12;;;;;;;8.40;4.20;;;;;;;15.24;66.09;101141.54;110535;1268;22564;-52
2023/04/25 02:52:39;;;;;;;6.90;4.20;;;;;;;15.25;66.11;101145.91;110387;1274;22265;-52
2023/04/25 02:55:13;;;;;;;4.90;4.10;;;;;;;15.24;66.28;101144.86;110514;1269;22370;-53
2023/04/25 02:57:40;;;;;;;5.20;3.70;;;;;;;15.25;66.36;101146.96;110379;1270;22636;-53
2023/04/25 03:00:11;;;;;;;6.30;4.60;;;;;;;15.25;66.31;101143.80;110573;1274;22373;-52
2023/04/25 03:02:38;;;;;;;7.30;4.10;;;;;;;15.24;66.40;101138.23;110495;1268;22414;-52
2023/04/25 03:05:05;;;;;;;6.70;3.90;;;;;;;15.24;66.48;101137.17;110525;1267;22431;-53
2023/04/25 03:07:33;;;;;;;6.10;4.20;;;;;;;15.25;66.57;101132.10;110527;1275;22288;-53
2023/04/25 03:10:00;;;;;;;9.60;4.20;;;;;;;15.25;66.59;101131.91;110336;1272;22350;-53
2023/04/25 03:12:27;;;;;;;9.10;3.90;;;;;;;15.25;66.68;101132.06;110536;1273;22380;-53
2023/04/25 03:14:54;;;;;;;6.70;3.90;;;;;;;15.26;66.67;101130.99;110525;1270;22268;-53
2023/04/25 03:17:21;;;;;;;8.50;4.30;;;;;;;15.26;66.68;101134.13;110546;1269;22262;-53
2023/04/25 03:19:48;;;;;;;5.00;3.70;;;;;;;15.27;66.77;101137.09;110547;1268;22372;-53
2023/04/25 03:22:16;;;;;;;6.30;3.90;;;;;;;15.26;66.69;101132.90;109766;1274;1006255;-53
2023/04/25 03:24:43;;;;;;;6.30;4.60;;;;;;;15.27;66.82;101132.38;110512;1267;22072;-53
2023/04/25 03:27:10;;;;;;;7.50;4.40;;;;;;;15.28;66.93;101131.25;110450;1270;22273;-53
2023/04/25 03:29:37;;;;;;;7.90;4.50;;;;;;;15.30;66.93;101132.26;108770;1271;1002944;-53
2023/04/25 03:32:05;;;;;;;5.00;3.90;;;;;;;15.32;66.92;101134.11;110559;1274;22335;-53
2023/04/25 03:34:32;;;;;;;6.80;3.90;;;;;;;15.33;66.91;101133.73;110530;1274;22118;-53
2023/04/25 03:36:59;;;;;;;7.70;4.60;;;;;;;15.34;66.88;101131.76;110546;1269;22124;-53
2023/04/25 03:39:27;;;;;;;6.40;4.30;;;;;;;15.35;66.84;101137.48;110562;1267;23047;-53
2023/04/25 03:41:55;;;;;;;8.10;4.60;;;;;;;15.37;66.81;101138.13;110584;1266;22328;-52
2023/04/25 03:44:24;;;;;;;7.90;4.30;;;;;;;15.36;66.76;101135.02;110393;1270;22941;-52
2023/04/25 03:46:51;;;;;;;6.20;4.40;;;;;;;15.36;66.82;101136.76;110472;1268;22464;-53
2023/04/25 03:49:18;;;;;;;7.30;4.00;;;;;;;15.37;66.89;101133.73;110341;1271;22158;-53
2023/04/25 03:52:00;;;;;;;6.40;4.20;;;;;;;15.41;66.79;101133.44;110509;1268;22325;-53
2023/04/25 03:54:29;;;;;;;6.10;4.30;;;;;;;15.44;66.73;101134.39;110473;1269;22513;-53
2023/04/25 03:57:05;;;;;;;7.20;4.40;;;;;;;15.46;66.68;101134.50;110429;1269;23123;-52
2023/04/25 03:59:34;;;;;;;9.20;4.30;;;;;;;15.48;66.57;101132.70;110496;1274;22202;-53
2023/04/25 04:02:02;;;;;;;5.60;3.80;;;;;;;15.48;66.55;101133.20;110617;1268;22870;-53
2023/04/25 04:04:30;;;;;;;7.00;4.30;;;;;;;15.50;66.58;101131.39;110273;1274;22297;-53
2023/04/25 04:06:59;;;;;;;7.70;3.90;;;;;;;15.52;66.56;101126.95;110369;1274;23026;-52
2023/04/25 04:09:29;;;;;;;6.40;4.10;;;;;;;15.54;66.55;101127.23;110380;1270;22257;-53
2023/04/25 04:11:58;;;;;;;7.50;4.20;;;;;;;15.54;66.62;101124.58;108831;1270;1003069;-52
2023/04/25 04:14:25;;;;;;;8.10;4.90;;;;;;;15.56;66.60;101126.45;110298;1267;22197;-52
2023/04/25 04:16:54;;;;;;;8.50;4.40;;;;;;;15.59;66.44;101123.03;110468;1269;22322;-53
2023/04/25 04:19:21;;;;;;;4.30;3.80;;;;;;;15.63;66.33;101120.05;110407;1274;23192;-52
2023/04/25 04:22:07;;;;;;;4.50;4.10;;;;;;;15.67;66.35;101123.08;110534;1268;22127;-52
2023/04/25 04:24:34;;;;;;;7.60;4.50;;;;;;;15.69;66.26;101124.40;110454;1274;22359;-53
2023/04/25 04:27:05;;;;;;;4.90;3.80;;;;;;;15.70;66.37;101121.73;110394;1274;22875;-53
2023/04/25 04:29:38;;;;;;;5.60;3.80;;;;;;;15.73;66.33;101124.23;110573;1267;22852;-52
2023/04/25 04:32:11;;;;;;;5.60;4.50;;;;;;;15.77;66.19;101121.13;110201;1272;22302;-52
2023/04/25 04:34:39;;;;;;;6.30;3.80;;;;;;;15.77;66.13;101124.77;110507;1269;22115;-52
2023/04/25 04:37:06;;;;;;;5.00;4.00;;;;;;;15.79;66.07;101118.42;110551;1269;22378;-52
2023/04/25 04:39:35;;;;;;;6.10;4.00;;;;;;;15.81;65.99;101117.11;110393;1274;22501;-52
2023/04/25 04:42:12;;;;;;;7.70;4.20;;;;;;;15.82;65.89;101113.05;110614;1267;22924;-53
2023/04/25 04:44:54;;;;;;;6.70;4.40;;;;;;;15.83;65.85;101111.60;110514;1269;22159;-53
2023/04/25 04:47:36;;;;;;;7.60;3.90;;;;;;;15.86;65.79;101109.92;110260;1271;22297;-52
2023/04/25 04:50:22;;;;;;;6.40;4.00;;;;;;;15.88;65.67;101107.23;110390;1270;22411;-52
2023/04/25 04:53:08;;;;;;;7.70;4.00;;;;;;;15.90;65.59;101107.50;110347;1270;22298;-53
2023/04/25 04:55:38;;;;;;;6.90;4.30;;;;;;;15.93;65.48;101109.98;110439;1276;22420;-52
2023/04/25 04:58:21;;;;;;;5.80;3.50;;;;;;;15.97;65.40;101107.20;110113;1277;22391;-53
2023/04/25 05:01:11;;;;;;;5.10;3.60;;;;;;;15.98;65.26;101102.80;110108;1277;22288;-52
2023/04/25 05:04:04;;;;;;;6.10;3.70;;;;;;;15.99;65.20;101099.27;110153;1271;22330;-53
2023/04/25 05:07:07;;;;;;;4.10;3.50;;;;;;;16.01;65.07;101096.20;109758;1279;22330;-53
2023/04/25 05:10:00;;;;;;;5.20;3.30;;;;;;;16.03;64.96;101098.05;110312;1271;23183;-53
2023/04/25 05:12:33;;;;;;;8.20;3.80;;;;;;;16.07;64.81;101096.83;110420;1269;22986;-52
2023/04/25 05:15:20;;;;;;;5.40;3.40;;;;;;;16.09;64.70;101094.30;110046;1278;23038;-52
2023/04/25 05:18:19;;;;;;;6.90;3.60;;;;;;;16.12;64.54;101085.29;109924;1277;22287;-53
2023/04/25 05:21:09;;;;;;;6.30;3.40;;;;;;;16.14;64.40;101079.95;110038;1270;22357;-52
2023/04/25 05:23:46;;;;;;;7.10;4.10;;;;;;;16.18;64.17;101077.67;110107;1276;22313;-52
2023/04/25 05:26:45;;;;;;;4.00;3.60;;;;;;;16.24;64.05;101073.77;109796;1279;22177;-52
2023/04/25 05:29:38;;;;;;;4.30;3.80;;;;;;;16.28;63.88;101068.52;109587;1276;22303;-53
2023/04/25 05:32:15;;;;;;;7.00;3.80;;;;;;;16.33;63.95;101069.59;109706;1284;22167;-52
2023/04/25 05:34:42;;;;;;;5.60;3.80;;;;;;;16.44;63.94;101069.33;109793;1284;23588;-52
2023/04/25 05:37:19;;;;;;;7.70;3.40;;;;;;;16.67;63.87;101067.16;109749;1281;22935;-52
2023/04/25 05:39:54;;;;;;;4.50;3.60;;;;;;;16.98;63.26;101069.51;109750;1281;22315;-52
2023/04/25 05:42:44;;;;;;;4.40;3.10;;;;;;;17.38;61.90;101068.23;109732;1284;23138;-52
2023/04/25 05:45:30;;;;;;;8.40;3.30;;;;;;;17.78;60.56;101066.77;109755;1282;22944;-52
2023/04/25 05:48:08;;;;;;;4.00;3.20;;;;;;;18.19;59.60;101066.02;109972;1277;22158;-52
2023/04/25 05:50:48;;;;;;;5.60;2.90;;;;;;;18.68;58.28;101060.30;109871;1282;22894;-52
2023/04/25 05:53:33;;;;;;;4.70;2.90;;;;;;;19.23;56.67;101067.44;109988;1282;22319;-52
2023/04/25 05:56:01;;;;;;;5.80;2.70;;;;;;;19.74;55.49;101068.06;109956;1280;23247;-52
2023/04/25 05:58:29;;;;;;;5.60;3.00;;;;;;;20.29;54.22;101061.27;109968;1280;22400;-52
2023/04/25 06:00:58;;;;;;;4.60;2.70;;;;;;;20.86;52.42;101065.46;109933;1279;22228;-52
2023/04/25 06:03:25;;;;;;;6.60;3.30;;;;;;;21.41;51.09;101067.29;110091;1275;22102;-52
2023/04/25 06:05:52;;;;;;;7.80;3.30;;;;;;;21.94;49.70;101064.46;110392;1274;22102;-53
2023/04/25 06:08:19;;;;;;;5.80;2.90;;;;;;;22.42;48.45;101060.27;110536;1269;22416;-52
2023/04/25 06:10:46;;;;;;;6.90;3.40;;;;;;;22.83;47.19;101062.30;110484;1270;22269;-52
2023/04/25 06:13:14;;;;;;;5.70;2.60;;;;;;;23.16;46.24;101067.48;110375;1270;23231;-52
2023/04/25 06:15:41;;;;;;;5.10;2.70;;;;;;;23.38;45.68;101058.86;110127;1273;22421;-52
2023/04/25 06:18:08;;;;;;;6.40;2.90;;;;;;;23.55;45.03;101058.67;110225;1277;22229;-52
2023/04/25 06:20:35;;;;;;;4.40;2.60;;;;;;;23.74;44.35;101053.98;110113;1277;22241;-52
2023/04/25 06:23:02;;;;;;;4.30;2.60;;;;;;;23.90;43.54;101048.54;110235;1271;22185;-51
2023/04/25 06:25:52;;;;;;;4.30;2.40;;;;;;;23.98;42.81;101046.33;110095;1270;23175;-51
2023/04/25 06:28:21;;;;;;;3.80;2.70;;;;;;;23.97;42.53;101047.67;110112;1270;22335;-52
2023/04/25 06:30:48;;;;;;;4.00;2.60;;;;;;;24.02;42.17;101052.64;110381;1269;22133;-52
2023/04/25 06:33:17;;;;;;;4.30;2.60;;;;;;;24.11;41.91;101054.64;110252;1271;22312;-52
2023/04/25 06:35:44;;;;;;;4.40;2.60;;;;;;;24.22;41.43;101061.23;110268;1277;22389;-52
2023/04/25 06:38:12;;;;;;;7.10;2.90;;;;;;;24.27;41.12;101062.88;110194;1276;22262;-52
2023/04/25 06:40:42;;;;;;;5.40;2.90;;;;;;;24.24;41.29;101062.90;110106;1273;22303;-52
2023/04/25 06:43:10;;;;;;;5.70;3.00;;;;;;;24.20;41.34;101065.08;110155;1273;22131;-52
2023/04/25 06:46:03;;;;;;;4.30;2.30;;;;;;;24.14;41.53;101057.77;110298;1274;22284;-52
2023/04/25 06:48:31;;;;;;;4.60;3.00;;;;;;;24.09;41.49;101057.23;110507;1268;22437;-52
2023/04/25 06:50:58;;;;;;;4.80;2.90;;;;;;;24.08;41.58;101060.38;110295;1270;22290;-52
2023/04/25 06:53:26;;;;;;;4.00;3.00;;;;;;;24.08;41.72;101059.45;110153;1271;22676;-52
2023/04/25 06:55:57;;;;;;;;;;;;;;;24.12;41.47;101058.99;110146;1269;22517;-52
2023/04/25 06:58:29;;;;;;;4.10;2.30;;;;;;;24.14;41.22;101055.29;110378;1271;22176;-52
2023/04/25 07:00:59;;;;;;;2.70;2.30;;;;;;;24.16;41.25;101056.06;110113;1273;22184;-51
2023/04/25 07:03:27;;;;;;;6.70;2.60;;;;;;;24.20;40.93;101056.29;110039;1276;22400;-52
2023/04/25 07:05:58;;;;;;;3.40;2.60;;;;;;;24.29;40.62;101059.21;110396;1270;23116;-52
2023/04/25 07:08:25;;;;;;;5.70;2.70;;;;;;;24.35;40.47;101057.85;110237;1274;22290;-52
2023/04/25 07:10:52;;;;;;;3.90;2.30;;;;;;;24.37;40.39;101057.36;110216;1272;22347;-52
2023/04/25 07:13:19;;;;;;;6.30;2.80;;;;;;;24.39;40.70;101057.69;110336;1275;22311;-52
2023/04/25 07:15:48;;;;;;;2.80;2.30;;;;;;;24.43;40.67;101055.65;110134;1276;22168;-52
2023/04/25 07:18:15;;;;;;;4.90;2.50;;;;;;;24.47;40.83;101053.21;110010;1274;22176;-52
2023/04/25 07:20:42;;;;;;;5.00;2.60;;;;;;;24.53;40.80;101055.23;109827;1284;22183;-52
2023/04/25 07:23:10;;;;;;;5.00;2.30;;;;;;;24.59;40.56;101054.27;109851;1282;22865;-52
2023/04/25 07:25:37;;;;;;;5.40;2.70;;;;;;;24.60;40.38;101054.52;109928;1276;22166;-52
2023/04/25 07:28:05;;;;;;;5.40;2.80;;;;;;;24.57;40.31;101054.77;109795;1280;23075;-52
2023/04/25 07:30:31;;;;;;;5.40;2.50;;;;;;;24.51;40.45;101059.48;109766;1279;22322;-53
2023/04/25 07:33:02;;;;;;;6.40;2.50;;;;;;;24.41;40.53;101057.42;109789;1274;22158;-52
2023/04/25 07:35:29;;;;;;;4.30;2.80;;;;;;;24.25;40.74;101058.37;109964;1277;22196;-52
2023/04/25 07:37:57;;;;;;;6.40;2.70;;;;;;;24.05;41.07;101056.78;109993;1274;22433;-52
2023/04/25 07:40:24;;;;;;;5.90;3.20;;;;;;;23.83;41.14;101056.84;109957;1274;22504;-51
2023/04/25 07:42:58;;;;;;;6.50;3.10;;;;;;;23.57;41.54;101056.98;109909;1277;22996;-52
2023/04/25 07:45:37;;;;;;;5.60;2.90;;;;;;;23.27;41.92;101055.54;109802;1275;22176;-52
2023/04/25 07:48:04;;;;;;;4.30;2.80;;;;;;;23.01;42.55;101057.37;109943;1281;22176;-52
2023/04/25 07:50:32;;;;;;;5.70;2.60;;;;;;;22.75;43.11;101056.32;110038;1276;22328;-52
2023/04/25 07:52:59;;;;;;;7.40;3.00;;;;;;;22.51;43.40;101057.86;110025;1276;23188;-51
2023/04/25 07:55:31;;;;;;;;;;;;;;;22.28;43.90;101057.29;110285;1271;22896;-52
2023/04/25 07:58:11;;;;;;;5.70;2.80;;;;;;;22.05;44.38;101057.20;110308;1270;22183;-51
2023/04/25 08:00:40;;;;;;;6.10;3.00;;;;;;;21.86;44.97;101059.55;110191;1274;22985;-52
2023/04/25 08:03:39;;;;;;;4.10;2.60;;;;;;;21.66;45.45;101058.46;110201;1266;23086;-52
2023/04/25 08:06:12;;;;;;;5.30;2.70;;;;;;;21.52;45.91;101059.55;110441;1267;22307;-51
2023/04/25 08:08:50;;;;;;;5.90;2.80;;;;;;;21.38;45.94;101056.19;110381;1274;23089;-51
2023/04/25 08:11:19;;;;;;;5.70;3.10;;;;;;;21.26;46.07;101058.52;110131;1269;22396;-52
2023/04/25 08:13:45;;;;;;;4.10;2.50;;;;;;;21.17;46.15;101057.87;110195;1271;22286;-51
2023/04/25 08:16:13;;;;;;;3.70;2.80;;;;;;;21.06;46.67;101059.02;110548;1267;22106;-52
2023/04/25 08:18:40;;;;;;;4.50;2.30;;;;;;;20.99;47.00;101061.38;110493;1270;22927;-52
2023/04/25 08:21:08;;;;;;;4.70;2.80;;;;;;;20.93;47.16;101067.34;110523;1268;22313;-51
2023/04/25 08:23:35;;;;;;;4.70;2.90;;;;;;;20.87;46.98;101065.60;110479;1271;22384;-52
2023/04/25 08:26:11;;;;;;;9.10;2.80;;;;;;;20.81;47.18;101065.44;110527;1274;22308;-52
2023/04/25 08:28:38;;;;;;;7.00;3.00;;;;;;;20.76;47.47;101066.42;110428;1274;22168;-52
2023/04/25 08:31:05;;;;;;;4.50;2.60;;;;;;;20.71;47.64;101068.35;110479;1275;22118;-52
2023/04/25 08:33:40;;;;;;;4.40;2.70;;;;;;;20.65;47.76;101069.72;110501;1274;22194;-51
2023/04/25 08:36:18;;;;;;;6.10;3.20;;;;;;;20.62;47.96;101070.48;110559;1268;22129;-51
2023/04/25 08:39:05;;;;;;;4.50;2.70;;;;;;;20.58;47.98;101070.86;110504;1268;22133;-52
2023/04/25 08:41:33;;;;;;;5.50;2.50;;;;;;;20.57;48.41;101066.01;110535;1274;23325;-51
2023/04/25 08:44:00;;;;;;;4.30;2.70;;;;;;;20.57;48.51;101064.39;110534;1273;22533;-51
2023/04/25 08:46:28;;;;;;;7.70;2.80;;;;;;;20.62;48.43;101059.69;110356;1274;22369;-51
2023/04/25 08:49:15;;;;;;;6.60;2.60;;;;;;;20.65;48.08;101057.56;110415;1269;22153;-51
2023/04/25 08:51:50;;;;;;;6.70;3.30;;;;;;;20.63;48.15;101057.35;110268;1277;22320;-52
2023/04/25 08:54:18;;;;;;;4.00;2.50;;;;;;;20.57;48.17;101056.48;110269;1270;22169;-52
2023/04/25 08:57:02;;;;;;;8.80;2.90;;;;;;;20.50;48.14;101057.80;110099;1277;22165;-52
2023/04/25 08:59:29;;;;;;;3.90;2.70;;;;;;;20.41;48.30;101059.52;110150;1277;23057;-52
2023/04/25 09:01:57;;;;;;;5.00;2.70;;;;;;;20.32;48.59;101059.34;110033;1275;22203;-51
2023/04/25 09:04:24;;;;;;;4.10;2.50;;;;;;;20.24;48.76;101058.39;110271;1277;22180;-51
2023/04/25 09:06:52;;;;;;;4.80;2.40;;;;;;;20.16;48.97;101051.41;110086;1274;22189;-51
2023/04/25 09:09:19;;;;;;;4.50;2.80;;;;;;;20.08;48.91;101052.56;110168;1271;22349;-51
2023/04/25 09:11:46;;;;;;;5.40;2.70;;;;;;;20.01;49.26;101047.54;110065;1276;23115;-51
2023/04/25 09:14:17;;;;;;;3.10;2.30;;;;;;;19.97;49.72;101045.45;110303;1277;22429;-51
2023/04/25 09:17:04;;;;;;;6.70;3.00;;;;;;;19.96;50.26;101043.77;110306;1277;22150;-51
2023/04/25 09:19:39;;;;;;;4.50;2.40;;;;;;;19.92;50.63;101043.98;110227;1277;22175;-51
2023/04/25 09:22:22;;;;;;;4.00;2.50;;;;;;;20.06;50.27;101045.13;110224;1274;22188;-51
2023/04/25 09:24:51;;;;;;;5.60;2.80;;;;;;;20.14;50.07;101044.48;110529;1269;22164;-51
2023/04/25 09:27:22;;;;;;;3.50;2.60;;;;;;;20.21;50.14;101045.00;110413;1271;23280;-51
2023/04/25 09:30:02;;;;;;;4.40;2.70;;;;;;;20.31;49.89;101049.36;110448;1267;23150;-51
2023/04/25 09:33:03;;;;;;;4.60;3.20;;;;;;;20.42;49.79;101051.21;110434;1269;22347;-51
2023/04/25 09:35:34;;;;;;;4.50;2.70;;;;;;;20.50;49.68;101047.57;110518;1274;22104;-51
2023/04/25 09:38:06;;;;;;;4.10;2.20;;;;;;;20.56;49.91;101045.09;110511;1271;23063;-51
2023/04/25 09:40:52;;;;;;;6.10;2.70;;;;;;;20.62;49.69;101041.21;110544;1269;22133;-52
2023/04/25 09:43:39;;;;;;;3.10;2.50;;;;;;;20.66;49.47;101042.21;110649;1267;22382;-51
2023/04/25 09:46:10;;;;;;;5.60;2.40;;;;;;;20.67;49.30;101040.03;110517;1273;22119;-51
2023/04/25 09:48:53;;;;;;;5.30;2.60;;;;;;;20.68;49.15;101035.90;110441;1269;23141;-51
2023/04/25 09:51:30;;;;;;;5.30;2.90;;;;;;;20.67;48.99;101036.32;110464;1266;22297;-52
2023/04/25 09:53:57;;;;;;;2.80;2.40;;;;;;;20.65;49.08;101032.55;110539;1274;22759;-51
2023/04/25 09:56:31;;;;;;;3.90;2.70;;;;;;;20.62;49.19;101028.17;110497;1269;22412;-52
2023/04/25 09:59:00;;;;;;;6.00;2.70;;;;;;;20.60;49.26;101026.36;110572;1273;22275;-52
2023/04/25 10:01:27;;;;;;;5.00;2.50;;;;;;;20.58;49.30;101025.18;110377;1274;22249;-52
2023/04/25 10:04:01;;;;;;;3.50;2.20;;;;;;;20.55;49.31;101024.90;110461;1274;22330;-51
2023/04/25 10:06:43;;;;;;;4.50;2.20;;;;;;;20.52;49.30;101024.54;110046;1277;22229;-51
2023/04/25 10:09:11;;;;;;;9.30;2.50;;;;;;;20.49;49.13;101018.02;110060;1275;22161;-51
2023/04/25 10:11:38;;;;;;;5.10;2.60;;;;;;;20.47;49.28;101018.67;110162;1277;22136;-51
2023/04/25 10:14:06;;;;;;;6.00;3.00;;;;;;;20.45;49.27;101016.49;110072;1277;22342;-52
2023/04/25 10:16:33;;;;;;;4.00;2.40;;;;;;;20.42;49.20;101011.21;110142;1272;22551;-52
2023/04/25 10:19:00;;;;;;;3.20;2.50;;;;;;;20.39;48.91;101014.35;110283;1271;22187;-51
2023/04/25 10:21:27;;;;;;;4.20;2.60;;;;;;;20.35;48.60;101011.09;110226;1271;22526;-51
2023/04/25 10:23:54;;;;;;;6.20;2.90;;;;;;;20.29;48.84;101009.67;110026;1272;22323;-51
2023/04/25 10:26:21;;;;;;;8.70;2.80;;;;;;;20.23;48.89;101007.89;110110;1270;22350;-51
2023/04/25 10:28:56;;;;;;;4.40;2.70;;;;;;;20.17;49.00;101005.38;110181;1274;22224;-51
2023/04/25 10:31:23;;;;;;;4.80;2.50;;;;;;;20.13;49.30;101004.42;110089;1278;22175;-51
2023/04/25 10:33:50;;;;;;;5.00;2.90;;;;;;;20.10;49.42;101002.30;110123;1274;23129;-51
2023/04/25 10:36:19;;;;;;;4.80;2.80;;;;;;;20.09;49.50;101000.59;110190;1277;22880;-51
2023/04/25 10:38:47;;;;;;;4.30;2.60;;;;;;;20.11;49.60;101003.46;110625;1267;22334;-51
2023/04/25 10:41:14;;;;;;;4.30;2.60;;;;;;;20.15;49.46;101005.15;110607;1269;22415;-51
2023/04/25 10:43:42;;;;;;;4.80;2.50;;;;;;;20.21;49.29;101005.19;110567;1269;22466;-51
2023/04/25 10:46:19;;;;;;;5.80;2.60;;;;;;;20.25;48.84;101005.86;110550;1274;22095;-52
2023/04/25 10:48:48;;;;;;;5.80;2.40;;;;;;;20.29;48.53;101007.20;110602;1267;22783;-51
2023/04/25 10:51:23;;;;;;;5.60;2.80;;;;;;;20.32;48.36;101005.97;110567;1274;23083;-51
2023/04/25 10:54:03;;;;;;;5.00;2.50;;;;;;;20.36;48.44;101010.64;110554;1274;22214;-51
2023/04/25 10:56:41;;;;;;;3.70;2.50;;;;;;;20.40;48.20;101006.17;110579;1274;22587;-51
2023/04/25 10:59:16;;;;;;;2.80;2.10;;;;;;;20.45;47.92;101009.98;110571;1269;22276;-51
2023/04/25 11:01:46;;;;;;;4.70;2.90;;;;;;;20.47;47.97;101006.52;110210;1273;22337;-52
2023/04/25 11:04:23;;;;;;;4.80;2.70;;;;;;;20.49;48.16;101007.05;110267;1275;22460;-51
2023/04/25 11:07:09;;;;;;;2.60;2.30;;;;;;;20.51;47.98;101003.45;110550;1268;22122;-51
2023/04/25 11:09:39;;;;;;;4.80;2.70;;;;;;;20.52;47.96;100994.21;110542;1274;22192;-51
2023/04/25 11:12:11;;;;;;;6.90;2.60;;;;;;;20.53;48.00;100993.29;110582;1269;22099;-51
2023/04/25 11:14:39;;;;;;;5.30;2.50;;;;;;;20.52;48.12;100994.92;110526;1274;22451;-51
2023/04/25 11:17:11;;;;;;;4.50;2.10;;;;;;;20.51;48.05;100996.01;110304;1274;22408;-51
2023/04/25 11:19:38;;;;;;;3.60;2.50;;;;;;;20.51;47.88;100991.80;110559;1268;22259;-51
2023/04/25 11:22:06;;;;;;;4.00;2.50;;;;;;;20.52;47.71;100994.20;110596;1269;22406;-51
2023/04/25 11:24:35;;;;;;;4.10;2.40;;;;;;;20.52;47.75;100993.88;110573;1274;22410;-51
2023/04/25 11:27:02;;;;;;;5.40;2.80;;;;;;;20.50;47.76;100991.16;110562;1266;22430;-51
2023/04/25 11:29:30;;;;;;;6.00;2.80;;;;;;;20.52;47.72;100985.39;110578;1269;22343;-51
2023/04/25 11:31:57;;;;;;;5.50;2.90;;;;;;;20.52;47.61;100978.50;110670;1266;22101;-51
2023/04/25 11:34:25;;;;;;;3.10;1.90;;;;;;;20.51;47.63;100977.71;110281;1274;22357;-51
2023/04/25 11:36:53;;;;;;;5.60;2.80;;;;;;;20.49;47.51;100975.88;110579;1269;22347;-51